sensor_id;sensor_type;location;lat;lon;timestamp;P1;durP1;ratioP1;P2;durP2;ratioP2
5762;SDS011;2906;53.282;9.508;2022-07-04T00:00:49;7.65;;;3.85;;
5762;SDS011;2906;53.282;9.508;2022-07-04T00:01:50;7.90;;;4.20;;
5762;SDS011;2906;53.282;9.508;2022-07-04T00:02:54;9.38;;;4.45;;
5762;SDS011;2906;53.282;9.508;2022-07-04T00:03:55;12.82;;;4.07;;
5762;SDS011;2906;53.282;9.508;2022-07-04T00:04:57;9.70;;;3.90;;
5762;SDS011;2906;53.282;9.508;2022-07-04T00:05:58;6.85;;;4.00;;
5762;SDS011;2906;53.282;9.508;2022-07-04T00:07:01;6.75;;;4.15;;
5762;SDS011;2906;53.282;9.508;2022-07-04T00:08:02;9.07;;;4.75;;
5762;SDS011;2906;53.282;9.508;2022-07-04T00:09:04;8.38;;;4.50;;
5762;SDS011;2906;53.282;9.508;2022-07-04T00:10:07;12.55;;;4.15;;
5762;SDS011;2906;53.282;9.508;2022-07-04T00:11:09;7.68;;;4.10;;
5762;SDS011;2906;53.282;9.508;2022-07-04T00:12:11;14.10;;;5.07;;
5762;SDS011;2906;53.282;9.508;2022-07-04T00:13:13;8.23;;;4.40;;
5762;SDS011;2906;53.282;9.508;2022-07-04T00:14:15;10.00;;;4.78;;
5762;SDS011;2906;53.282;9.508;2022-07-04T00:15:17;7.03;;;3.95;;
5762;SDS011;2906;53.282;9.508;2022-07-04T00:16:18;9.95;;;4.38;;
5762;SDS011;2906;53.282;9.508;2022-07-04T00:17:21;11.38;;;4.75;;
5762;SDS011;2906;53.282;9.508;2022-07-04T00:18:23;7.38;;;4.55;;
5762;SDS011;2906;53.282;9.508;2022-07-04T00:19:25;7.32;;;4.72;;
5762;SDS011;2906;53.282;9.508;2022-07-04T00:20:27;7.72;;;4.38;;
5762;SDS011;2906;53.282;9.508;2022-07-04T00:21:29;10.07;;;4.38;;
5762;SDS011;2906;53.282;9.508;2022-07-04T00:22:30;9.73;;;4.00;;
5762;SDS011;2906;53.282;9.508;2022-07-04T00:23:32;7.78;;;4.95;;
5762;SDS011;2906;53.282;9.508;2022-07-04T00:24:34;6.88;;;4.60;;
5762;SDS011;2906;53.282;9.508;2022-07-04T00:25:36;7.72;;;4.50;;
5762;SDS011;2906;53.282;9.508;2022-07-04T00:26:37;10.73;;;4.20;;
5762;SDS011;2906;53.282;9.508;2022-07-04T00:27:39;10.15;;;4.43;;
5762;SDS011;2906;53.282;9.508;2022-07-04T00:28:41;10.88;;;4.95;;
5762;SDS011;2906;53.282;9.508;2022-07-04T00:29:43;14.75;;;4.57;;
5762;SDS011;2906;53.282;9.508;2022-07-04T00:30:44;7.93;;;4.60;;
5762;SDS011;2906;53.282;9.508;2022-07-04T00:31:47;7.93;;;4.57;;
5762;SDS011;2906;53.282;9.508;2022-07-04T00:32:48;12.40;;;4.75;;
5762;SDS011;2906;53.282;9.508;2022-07-04T00:33:51;15.18;;;5.03;;
5762;SDS011;2906;53.282;9.508;2022-07-04T00:34:54;11.10;;;4.65;;
5762;SDS011;2906;53.282;9.508;2022-07-04T00:35:55;9.35;;;4.95;;
5762;SDS011;2906;53.282;9.508;2022-07-04T00:36:57;10.43;;;5.30;;
5762;SDS011;2906;53.282;9.508;2022-07-04T00:37:58;8.23;;;4.93;;
5762;SDS011;2906;53.282;9.508;2022-07-04T00:39:01;9.73;;;5.20;;
5762;SDS011;2906;53.282;9.508;2022-07-04T00:40:02;8.93;;;4.90;;
5762;SDS011;2906;53.282;9.508;2022-07-04T00:41:04;6.22;;;4.60;;
5762;SDS011;2906;53.282;9.508;2022-07-04T00:42:07;12.57;;;4.80;;
5762;SDS011;2906;53.282;9.508;2022-07-04T00:43:08;9.55;;;5.57;;
5762;SDS011;2906;53.282;9.508;2022-07-04T00:44:11;9.60;;;5.20;;
5762;SDS011;2906;53.282;9.508;2022-07-04T00:45:13;5.45;;;4.60;;
5762;SDS011;2906;53.282;9.508;2022-07-04T00:46:15;9.48;;;4.70;;
5762;SDS011;2906;53.282;9.508;2022-07-04T00:47:16;6.32;;;4.90;;
5762;SDS011;2906;53.282;9.508;2022-07-04T00:48:18;7.55;;;4.72;;
5762;SDS011;2906;53.282;9.508;2022-07-04T00:49:21;8.77;;;4.95;;
5762;SDS011;2906;53.282;9.508;2022-07-04T00:50:23;7.53;;;4.93;;
5762;SDS011;2906;53.282;9.508;2022-07-04T00:51:25;9.15;;;4.97;;
5762;SDS011;2906;53.282;9.508;2022-07-04T00:52:28;10.80;;;5.22;;
5762;SDS011;2906;53.282;9.508;2022-07-04T00:53:29;7.95;;;5.00;;
5762;SDS011;2906;53.282;9.508;2022-07-04T00:54:32;9.80;;;5.35;;
5762;SDS011;2906;53.282;9.508;2022-07-04T00:55:33;11.30;;;5.07;;
5762;SDS011;2906;53.282;9.508;2022-07-04T00:56:36;13.70;;;5.50;;
5762;SDS011;2906;53.282;9.508;2022-07-04T00:57:37;6.70;;;5.07;;
5762;SDS011;2906;53.282;9.508;2022-07-04T00:58:40;6.85;;;5.07;;
5762;SDS011;2906;53.282;9.508;2022-07-04T00:59:41;10.93;;;5.60;;
5762;SDS011;2906;53.282;9.508;2022-07-04T01:00:43;9.48;;;4.95;;
5762;SDS011;2906;53.282;9.508;2022-07-04T01:01:44;12.05;;;5.57;;
5762;SDS011;2906;53.282;9.508;2022-07-04T01:02:47;7.32;;;4.95;;
5762;SDS011;2906;53.282;9.508;2022-07-04T01:03:48;10.38;;;5.75;;
5762;SDS011;2906;53.282;9.508;2022-07-04T01:04:52;6.85;;;5.13;;
5762;SDS011;2906;53.282;9.508;2022-07-04T01:05:53;13.13;;;5.40;;
5762;SDS011;2906;53.282;9.508;2022-07-04T01:06:55;6.85;;;5.45;;
5762;SDS011;2906;53.282;9.508;2022-07-04T01:07:57;12.20;;;5.20;;
5762;SDS011;2906;53.282;9.508;2022-07-04T01:09:00;8.07;;;5.50;;
5762;SDS011;2906;53.282;9.508;2022-07-04T01:10:02;18.20;;;5.30;;
5762;SDS011;2906;53.282;9.508;2022-07-04T01:11:04;10.80;;;5.50;;
5762;SDS011;2906;53.282;9.508;2022-07-04T01:12:05;10.20;;;5.68;;
5762;SDS011;2906;53.282;9.508;2022-07-04T01:13:07;7.88;;;5.20;;
5762;SDS011;2906;53.282;9.508;2022-07-04T01:14:09;8.90;;;6.10;;
5762;SDS011;2906;53.282;9.508;2022-07-04T01:15:11;13.77;;;6.18;;
5762;SDS011;2906;53.282;9.508;2022-07-04T01:16:12;8.85;;;6.00;;
5762;SDS011;2906;53.282;9.508;2022-07-04T01:17:15;8.50;;;5.50;;
5762;SDS011;2906;53.282;9.508;2022-07-04T01:18:16;9.23;;;6.25;;
5762;SDS011;2906;53.282;9.508;2022-07-04T01:19:18;12.23;;;6.03;;
5762;SDS011;2906;53.282;9.508;2022-07-04T01:20:21;8.50;;;5.68;;
5762;SDS011;2906;53.282;9.508;2022-07-04T01:21:24;10.60;;;6.35;;
5762;SDS011;2906;53.282;9.508;2022-07-04T01:22:25;10.80;;;5.68;;
5762;SDS011;2906;53.282;9.508;2022-07-04T01:23:27;11.30;;;5.85;;
5762;SDS011;2906;53.282;9.508;2022-07-04T01:24:29;9.38;;;5.88;;
5762;SDS011;2906;53.282;9.508;2022-07-04T01:25:31;9.32;;;5.80;;
5762;SDS011;2906;53.282;9.508;2022-07-04T01:26:33;13.10;;;6.35;;
5762;SDS011;2906;53.282;9.508;2022-07-04T01:27:35;10.55;;;7.20;;
5762;SDS011;2906;53.282;9.508;2022-07-04T01:28:36;11.98;;;6.05;;
5762;SDS011;2906;53.282;9.508;2022-07-04T01:29:39;7.82;;;5.75;;
5762;SDS011;2906;53.282;9.508;2022-07-04T01:30:40;9.75;;;5.60;;
5762;SDS011;2906;53.282;9.508;2022-07-04T01:31:42;9.93;;;6.18;;
5762;SDS011;2906;53.282;9.508;2022-07-04T01:32:43;15.75;;;6.43;;
5762;SDS011;2906;53.282;9.508;2022-07-04T01:33:46;11.35;;;5.93;;
5762;SDS011;2906;53.282;9.508;2022-07-04T01:34:47;8.77;;;5.80;;
5762;SDS011;2906;53.282;9.508;2022-07-04T01:35:51;10.02;;;6.28;;
5762;SDS011;2906;53.282;9.508;2022-07-04T01:36:52;10.70;;;6.65;;
5762;SDS011;2906;53.282;9.508;2022-07-04T01:37:54;15.23;;;6.22;;
5762;SDS011;2906;53.282;9.508;2022-07-04T01:38:55;13.88;;;7.15;;
5762;SDS011;2906;53.282;9.508;2022-07-04T01:39:59;9.55;;;6.28;;
5762;SDS011;2906;53.282;9.508;2022-07-04T01:41:00;13.70;;;6.30;;
5762;SDS011;2906;53.282;9.508;2022-07-04T01:42:02;10.10;;;5.80;;
5762;SDS011;2906;53.282;9.508;2022-07-04T01:43:04;8.05;;;5.53;;
5762;SDS011;2906;53.282;9.508;2022-07-04T01:44:06;16.98;;;6.80;;
5762;SDS011;2906;53.282;9.508;2022-07-04T01:45:07;13.32;;;6.75;;
5762;SDS011;2906;53.282;9.508;2022-07-04T01:46:10;10.60;;;6.55;;
5762;SDS011;2906;53.282;9.508;2022-07-04T01:47:11;10.80;;;6.65;;
5762;SDS011;2906;53.282;9.508;2022-07-04T01:48:13;12.80;;;6.60;;
5762;SDS011;2906;53.282;9.508;2022-07-04T01:49:15;15.85;;;6.30;;
5762;SDS011;2906;53.282;9.508;2022-07-04T01:50:17;11.80;;;6.30;;
5762;SDS011;2906;53.282;9.508;2022-07-04T01:51:20;13.45;;;7.57;;
5762;SDS011;2906;53.282;9.508;2022-07-04T01:52:22;10.20;;;6.45;;
5762;SDS011;2906;53.282;9.508;2022-07-04T01:53:23;8.20;;;6.50;;
5762;SDS011;2906;53.282;9.508;2022-07-04T01:54:26;12.38;;;6.55;;
5762;SDS011;2906;53.282;9.508;2022-07-04T01:55:27;13.93;;;7.22;;
5762;SDS011;2906;53.282;9.508;2022-07-04T01:56:30;12.68;;;6.75;;
5762;SDS011;2906;53.282;9.508;2022-07-04T01:57:31;11.48;;;6.95;;
5762;SDS011;2906;53.282;9.508;2022-07-04T01:58:33;18.88;;;6.90;;
5762;SDS011;2906;53.282;9.508;2022-07-04T01:59:34;10.55;;;7.35;;
5762;SDS011;2906;53.282;9.508;2022-07-04T02:00:50;12.85;;;7.30;;
5762;SDS011;2906;53.282;9.508;2022-07-04T02:02:07;11.90;;;6.95;;
5762;SDS011;2906;53.282;9.508;2022-07-04T02:03:09;12.55;;;7.15;;
5762;SDS011;2906;53.282;9.508;2022-07-04T02:04:10;13.93;;;7.00;;
5762;SDS011;2906;53.282;9.508;2022-07-04T02:05:13;12.35;;;6.93;;
5762;SDS011;2906;53.282;9.508;2022-07-04T02:06:15;16.20;;;7.72;;
5762;SDS011;2906;53.282;9.508;2022-07-04T02:07:18;11.45;;;6.70;;
5762;SDS011;2906;53.282;9.508;2022-07-04T02:08:20;11.05;;;7.28;;
5762;SDS011;2906;53.282;9.508;2022-07-04T02:09:22;13.00;;;8.13;;
5762;SDS011;2906;53.282;9.508;2022-07-04T02:10:23;9.25;;;6.78;;
5762;SDS011;2906;53.282;9.508;2022-07-04T02:11:26;12.23;;;7.07;;
5762;SDS011;2906;53.282;9.508;2022-07-04T02:12:27;18.50;;;7.60;;
5762;SDS011;2906;53.282;9.508;2022-07-04T02:13:43;10.35;;;6.68;;
5762;SDS011;2906;53.282;9.508;2022-07-04T02:14:44;11.88;;;7.53;;
5762;SDS011;2906;53.282;9.508;2022-07-04T02:15:47;15.20;;;7.55;;
5762;SDS011;2906;53.282;9.508;2022-07-04T02:16:48;11.13;;;7.05;;
5762;SDS011;2906;53.282;9.508;2022-07-04T02:17:50;9.57;;;6.80;;
5762;SDS011;2906;53.282;9.508;2022-07-04T02:18:52;13.25;;;8.23;;
5762;SDS011;2906;53.282;9.508;2022-07-04T02:19:54;12.93;;;7.60;;
5762;SDS011;2906;53.282;9.508;2022-07-04T02:20:56;10.20;;;7.85;;
5762;SDS011;2906;53.282;9.508;2022-07-04T02:21:58;11.30;;;7.97;;
5762;SDS011;2906;53.282;9.508;2022-07-04T02:23:01;16.45;;;8.15;;
5762;SDS011;2906;53.282;9.508;2022-07-04T02:24:03;13.80;;;8.05;;
5762;SDS011;2906;53.282;9.508;2022-07-04T02:25:05;16.30;;;8.15;;
5762;SDS011;2906;53.282;9.508;2022-07-04T02:26:07;16.20;;;8.00;;
5762;SDS011;2906;53.282;9.508;2022-07-04T02:27:09;12.05;;;7.65;;
5762;SDS011;2906;53.282;9.508;2022-07-04T02:28:10;10.48;;;7.60;;
5762;SDS011;2906;53.282;9.508;2022-07-04T02:29:13;10.93;;;8.25;;
5762;SDS011;2906;53.282;9.508;2022-07-04T02:30:15;12.40;;;7.60;;
5762;SDS011;2906;53.282;9.508;2022-07-04T02:31:17;14.90;;;7.43;;
5762;SDS011;2906;53.282;9.508;2022-07-04T02:32:18;9.82;;;7.60;;
5762;SDS011;2906;53.282;9.508;2022-07-04T02:33:21;13.75;;;7.57;;
5762;SDS011;2906;53.282;9.508;2022-07-04T02:34:22;13.52;;;7.97;;
5762;SDS011;2906;53.282;9.508;2022-07-04T02:35:24;10.25;;;6.80;;
5762;SDS011;2906;53.282;9.508;2022-07-04T02:36:25;8.80;;;7.10;;
5762;SDS011;2906;53.282;9.508;2022-07-04T02:37:28;14.18;;;8.13;;
5762;SDS011;2906;53.282;9.508;2022-07-04T02:38:30;12.43;;;8.30;;
5762;SDS011;2906;53.282;9.508;2022-07-04T02:39:33;11.35;;;7.95;;
5762;SDS011;2906;53.282;9.508;2022-07-04T02:40:34;17.92;;;8.10;;
5762;SDS011;2906;53.282;9.508;2022-07-04T02:41:36;13.98;;;8.13;;
5762;SDS011;2906;53.282;9.508;2022-07-04T02:42:37;10.60;;;7.35;;
5762;SDS011;2906;53.282;9.508;2022-07-04T02:43:40;13.23;;;8.00;;
5762;SDS011;2906;53.282;9.508;2022-07-04T02:44:41;10.20;;;7.68;;
5762;SDS011;2906;53.282;9.508;2022-07-04T02:45:45;14.88;;;7.90;;
5762;SDS011;2906;53.282;9.508;2022-07-04T02:46:46;11.30;;;7.68;;
5762;SDS011;2906;53.282;9.508;2022-07-04T02:47:48;12.95;;;7.55;;
5762;SDS011;2906;53.282;9.508;2022-07-04T02:48:49;13.75;;;7.80;;
5762;SDS011;2906;53.282;9.508;2022-07-04T02:49:52;10.23;;;7.07;;
5762;SDS011;2906;53.282;9.508;2022-07-04T02:50:53;11.45;;;7.80;;
5762;SDS011;2906;53.282;9.508;2022-07-04T02:51:55;10.68;;;7.53;;
5762;SDS011;2906;53.282;9.508;2022-07-04T02:52:56;16.90;;;8.80;;
5762;SDS011;2906;53.282;9.508;2022-07-04T02:54:00;16.92;;;7.60;;
5762;SDS011;2906;53.282;9.508;2022-07-04T02:55:02;14.65;;;8.30;;
5762;SDS011;2906;53.282;9.508;2022-07-04T02:56:04;18.45;;;7.50;;
5762;SDS011;2906;53.282;9.508;2022-07-04T02:57:06;17.00;;;7.90;;
5762;SDS011;2906;53.282;9.508;2022-07-04T02:58:08;10.10;;;7.55;;
5762;SDS011;2906;53.282;9.508;2022-07-04T02:59:10;19.05;;;8.43;;
5762;SDS011;2906;53.282;9.508;2022-07-04T03:00:12;10.65;;;8.00;;
5762;SDS011;2906;53.282;9.508;2022-07-04T03:01:14;15.73;;;8.35;;
5762;SDS011;2906;53.282;9.508;2022-07-04T03:02:19;14.68;;;8.15;;
5762;SDS011;2906;53.282;9.508;2022-07-04T03:03:21;11.55;;;7.97;;
5762;SDS011;2906;53.282;9.508;2022-07-04T03:04:23;12.02;;;8.20;;
5762;SDS011;2906;53.282;9.508;2022-07-04T03:05:24;11.73;;;7.32;;
5762;SDS011;2906;53.282;9.508;2022-07-04T03:06:29;10.50;;;7.65;;
5762;SDS011;2906;53.282;9.508;2022-07-04T03:07:30;8.73;;;7.18;;
5762;SDS011;2906;53.282;9.508;2022-07-04T03:08:32;13.43;;;7.32;;
5762;SDS011;2906;53.282;9.508;2022-07-04T03:09:35;13.77;;;7.95;;
5762;SDS011;2906;53.282;9.508;2022-07-04T03:10:37;16.55;;;7.40;;
5762;SDS011;2906;53.282;9.508;2022-07-04T03:11:39;12.80;;;6.65;;
5762;SDS011;2906;53.282;9.508;2022-07-04T03:12:41;9.65;;;6.63;;
5762;SDS011;2906;53.282;9.508;2022-07-04T03:13:42;15.77;;;7.55;;
5762;SDS011;2906;53.282;9.508;2022-07-04T03:14:45;15.00;;;7.80;;
5762;SDS011;2906;53.282;9.508;2022-07-04T03:15:46;10.00;;;7.63;;
5762;SDS011;2906;53.282;9.508;2022-07-04T03:16:48;14.38;;;7.90;;
5762;SDS011;2906;53.282;9.508;2022-07-04T03:17:50;14.23;;;7.65;;
5762;SDS011;2906;53.282;9.508;2022-07-04T03:18:52;12.30;;;7.82;;
5762;SDS011;2906;53.282;9.508;2022-07-04T03:19:53;16.23;;;8.68;;
5762;SDS011;2906;53.282;9.508;2022-07-04T03:20:55;11.60;;;7.85;;
5762;SDS011;2906;53.282;9.508;2022-07-04T03:21:57;11.95;;;7.97;;
5762;SDS011;2906;53.282;9.508;2022-07-04T03:22:59;12.35;;;7.40;;
5762;SDS011;2906;53.282;9.508;2022-07-04T03:24:00;10.85;;;7.30;;
5762;SDS011;2906;53.282;9.508;2022-07-04T03:25:04;12.23;;;7.50;;
5762;SDS011;2906;53.282;9.508;2022-07-04T03:26:05;10.40;;;7.68;;
5762;SDS011;2906;53.282;9.508;2022-07-04T03:27:09;10.63;;;7.97;;
5762;SDS011;2906;53.282;9.508;2022-07-04T03:28:10;15.85;;;7.82;;
5762;SDS011;2906;53.282;9.508;2022-07-04T03:29:12;10.02;;;7.63;;
5762;SDS011;2906;53.282;9.508;2022-07-04T03:30:14;16.42;;;7.72;;
5762;SDS011;2906;53.282;9.508;2022-07-04T03:31:16;11.27;;;7.18;;
5762;SDS011;2906;53.282;9.508;2022-07-04T03:32:17;14.27;;;8.15;;
5762;SDS011;2906;53.282;9.508;2022-07-04T03:33:20;15.23;;;8.35;;
5762;SDS011;2906;53.282;9.508;2022-07-04T03:34:23;12.95;;;8.23;;
5762;SDS011;2906;53.282;9.508;2022-07-04T03:35:24;12.85;;;7.90;;
5762;SDS011;2906;53.282;9.508;2022-07-04T03:36:26;15.68;;;6.93;;
5762;SDS011;2906;53.282;9.508;2022-07-04T03:37:29;11.25;;;7.95;;
5762;SDS011;2906;53.282;9.508;2022-07-04T03:38:30;16.83;;;8.07;;
5762;SDS011;2906;53.282;9.508;2022-07-04T03:39:32;14.32;;;8.45;;
5762;SDS011;2906;53.282;9.508;2022-07-04T03:40:35;11.93;;;7.82;;
5762;SDS011;2906;53.282;9.508;2022-07-04T03:41:38;22.10;;;7.75;;
5762;SDS011;2906;53.282;9.508;2022-07-04T03:42:39;14.55;;;8.50;;
5762;SDS011;2906;53.282;9.508;2022-07-04T03:43:42;11.95;;;7.55;;
5762;SDS011;2906;53.282;9.508;2022-07-04T03:44:43;11.73;;;7.72;;
5762;SDS011;2906;53.282;9.508;2022-07-04T03:45:45;11.70;;;7.82;;
5762;SDS011;2906;53.282;9.508;2022-07-04T03:46:46;14.65;;;8.25;;
5762;SDS011;2906;53.282;9.508;2022-07-04T03:47:49;12.60;;;6.97;;
5762;SDS011;2906;53.282;9.508;2022-07-04T03:48:51;9.10;;;7.20;;
5762;SDS011;2906;53.282;9.508;2022-07-04T03:49:53;10.35;;;7.40;;
5762;SDS011;2906;53.282;9.508;2022-07-04T03:50:54;10.95;;;7.00;;
5762;SDS011;2906;53.282;9.508;2022-07-04T03:51:57;8.77;;;7.07;;
5762;SDS011;2906;53.282;9.508;2022-07-04T03:52:58;13.10;;;7.40;;
5762;SDS011;2906;53.282;9.508;2022-07-04T03:54:01;9.23;;;7.05;;
5762;SDS011;2906;53.282;9.508;2022-07-04T03:55:02;11.93;;;7.28;;
5762;SDS011;2906;53.282;9.508;2022-07-04T03:56:05;13.02;;;7.50;;
5762;SDS011;2906;53.282;9.508;2022-07-04T03:57:08;12.73;;;7.18;;
5762;SDS011;2906;53.282;9.508;2022-07-04T03:58:10;11.77;;;7.18;;
5762;SDS011;2906;53.282;9.508;2022-07-04T03:59:11;13.70;;;7.03;;
5762;SDS011;2906;53.282;9.508;2022-07-04T04:00:14;7.95;;;6.30;;
5762;SDS011;2906;53.282;9.508;2022-07-04T04:01:15;17.08;;;7.07;;
5762;SDS011;2906;53.282;9.508;2022-07-04T04:02:18;12.27;;;7.15;;
5762;SDS011;2906;53.282;9.508;2022-07-04T04:03:19;13.25;;;6.80;;
5762;SDS011;2906;53.282;9.508;2022-07-04T04:04:35;10.23;;;6.80;;
5762;SDS011;2906;53.282;9.508;2022-07-04T04:05:51;10.65;;;6.78;;
5762;SDS011;2906;53.282;9.508;2022-07-04T04:06:54;12.52;;;6.50;;
5762;SDS011;2906;53.282;9.508;2022-07-04T04:07:55;10.05;;;7.03;;
5762;SDS011;2906;53.282;9.508;2022-07-04T04:08:57;9.80;;;6.10;;
5762;SDS011;2906;53.282;9.508;2022-07-04T04:09:59;19.33;;;6.57;;
5762;SDS011;2906;53.282;9.508;2022-07-04T04:11:01;12.52;;;6.90;;
5762;SDS011;2906;53.282;9.508;2022-07-04T04:12:04;16.95;;;6.45;;
5762;SDS011;2906;53.282;9.508;2022-07-04T04:13:06;9.55;;;6.47;;
5762;SDS011;2906;53.282;9.508;2022-07-04T04:14:07;14.98;;;7.10;;
5762;SDS011;2906;53.282;9.508;2022-07-04T04:15:10;10.45;;;6.88;;
5762;SDS011;2906;53.282;9.508;2022-07-04T04:16:11;11.45;;;6.80;;
5762;SDS011;2906;53.282;9.508;2022-07-04T04:17:13;12.82;;;6.55;;
5762;SDS011;2906;53.282;9.508;2022-07-04T04:18:15;10.18;;;6.57;;
5762;SDS011;2906;53.282;9.508;2022-07-04T04:19:17;10.82;;;6.18;;
5762;SDS011;2906;53.282;9.508;2022-07-04T04:20:19;11.32;;;6.32;;
5762;SDS011;2906;53.282;9.508;2022-07-04T04:21:21;11.73;;;6.30;;
5762;SDS011;2906;53.282;9.508;2022-07-04T04:22:22;10.65;;;6.00;;
5762;SDS011;2906;53.282;9.508;2022-07-04T04:23:25;15.38;;;6.45;;
5762;SDS011;2906;53.282;9.508;2022-07-04T04:24:26;11.70;;;6.70;;
5762;SDS011;2906;53.282;9.508;2022-07-04T04:25:28;11.50;;;6.47;;
5762;SDS011;2906;53.282;9.508;2022-07-04T04:26:30;12.85;;;6.22;;
5762;SDS011;2906;53.282;9.508;2022-07-04T04:27:34;9.13;;;6.30;;
5762;SDS011;2906;53.282;9.508;2022-07-04T04:28:35;11.60;;;7.03;;
5762;SDS011;2906;53.282;9.508;2022-07-04T04:29:37;10.57;;;6.38;;
5762;SDS011;2906;53.282;9.508;2022-07-04T04:30:38;9.38;;;6.63;;
5762;SDS011;2906;53.282;9.508;2022-07-04T04:31:41;11.43;;;6.55;;
5762;SDS011;2906;53.282;9.508;2022-07-04T04:32:42;9.82;;;6.20;;
5762;SDS011;2906;53.282;9.508;2022-07-04T04:33:44;9.38;;;7.10;;
5762;SDS011;2906;53.282;9.508;2022-07-04T04:34:45;10.10;;;6.68;;
5762;SDS011;2906;53.282;9.508;2022-07-04T04:35:48;9.32;;;6.28;;
5762;SDS011;2906;53.282;9.508;2022-07-04T04:36:49;16.60;;;6.28;;
5762;SDS011;2906;53.282;9.508;2022-07-04T04:37:51;15.38;;;6.55;;
5762;SDS011;2906;53.282;9.508;2022-07-04T04:38:52;9.77;;;6.55;;
5762;SDS011;2906;53.282;9.508;2022-07-04T04:39:54;8.68;;;6.72;;
5762;SDS011;2906;53.282;9.508;2022-07-04T04:40:56;9.57;;;6.28;;
5762;SDS011;2906;53.282;9.508;2022-07-04T04:41:58;9.77;;;6.05;;
5762;SDS011;2906;53.282;9.508;2022-07-04T04:43:01;13.80;;;6.50;;
5762;SDS011;2906;53.282;9.508;2022-07-04T04:44:04;12.07;;;6.70;;
5762;SDS011;2906;53.282;9.508;2022-07-04T04:45:05;16.23;;;6.75;;
5762;SDS011;2906;53.282;9.508;2022-07-04T04:46:08;11.13;;;5.93;;
5762;SDS011;2906;53.282;9.508;2022-07-04T04:47:09;9.48;;;5.93;;
5762;SDS011;2906;53.282;9.508;2022-07-04T04:48:11;10.77;;;6.13;;
5762;SDS011;2906;53.282;9.508;2022-07-04T04:49:13;10.23;;;5.90;;
5762;SDS011;2906;53.282;9.508;2022-07-04T04:50:17;9.75;;;6.20;;
5762;SDS011;2906;53.282;9.508;2022-07-04T04:51:18;14.15;;;6.05;;
5762;SDS011;2906;53.282;9.508;2022-07-04T04:52:20;10.23;;;6.07;;
5762;SDS011;2906;53.282;9.508;2022-07-04T04:53:23;9.07;;;5.78;;
5762;SDS011;2906;53.282;9.508;2022-07-04T04:54:25;10.50;;;5.93;;
5762;SDS011;2906;53.282;9.508;2022-07-04T04:55:27;9.32;;;5.07;;
5762;SDS011;2906;53.282;9.508;2022-07-04T04:56:29;11.90;;;5.60;;
5762;SDS011;2906;53.282;9.508;2022-07-04T04:57:32;11.98;;;6.38;;
5762;SDS011;2906;53.282;9.508;2022-07-04T04:58:36;7.97;;;5.72;;
5762;SDS011;2906;53.282;9.508;2022-07-04T04:59:37;9.32;;;5.20;;
5762;SDS011;2906;53.282;9.508;2022-07-04T05:00:40;18.02;;;8.95;;
5762;SDS011;2906;53.282;9.508;2022-07-04T05:01:41;10.75;;;5.70;;
5762;SDS011;2906;53.282;9.508;2022-07-04T05:02:43;9.18;;;5.35;;
5762;SDS011;2906;53.282;9.508;2022-07-04T05:03:44;7.97;;;5.70;;
5762;SDS011;2906;53.282;9.508;2022-07-04T05:04:47;9.70;;;5.22;;
5762;SDS011;2906;53.282;9.508;2022-07-04T05:05:48;11.48;;;5.32;;
5762;SDS011;2906;53.282;9.508;2022-07-04T05:06:51;9.10;;;4.93;;
5762;SDS011;2906;53.282;9.508;2022-07-04T05:07:52;10.32;;;5.18;;
5762;SDS011;2906;53.282;9.508;2022-07-04T05:08:55;10.48;;;5.68;;
5762;SDS011;2906;53.282;9.508;2022-07-04T05:09:57;13.73;;;5.80;;
5762;SDS011;2906;53.282;9.508;2022-07-04T05:11:00;6.63;;;5.05;;
5762;SDS011;2906;53.282;9.508;2022-07-04T05:12:01;12.13;;;5.68;;
5762;SDS011;2906;53.282;9.508;2022-07-04T05:13:04;9.73;;;5.43;;
5762;SDS011;2906;53.282;9.508;2022-07-04T05:14:07;12.98;;;5.70;;
5762;SDS011;2906;53.282;9.508;2022-07-04T05:15:09;8.05;;;4.70;;
5762;SDS011;2906;53.282;9.508;2022-07-04T05:16:11;9.18;;;4.82;;
5762;SDS011;2906;53.282;9.508;2022-07-04T05:17:13;8.20;;;4.53;;
5762;SDS011;2906;53.282;9.508;2022-07-04T05:18:14;9.30;;;4.32;;
5762;SDS011;2906;53.282;9.508;2022-07-04T05:19:17;7.20;;;4.63;;
5762;SDS011;2906;53.282;9.508;2022-07-04T05:20:19;8.25;;;5.18;;
5762;SDS011;2906;53.282;9.508;2022-07-04T05:21:20;8.68;;;5.32;;
5762;SDS011;2906;53.282;9.508;2022-07-04T05:22:22;20.38;;;5.45;;
5762;SDS011;2906;53.282;9.508;2022-07-04T05:23:24;10.32;;;5.38;;
5762;SDS011;2906;53.282;9.508;2022-07-04T05:24:26;8.85;;;4.85;;
5762;SDS011;2906;53.282;9.508;2022-07-04T05:25:27;6.63;;;4.90;;
5762;SDS011;2906;53.282;9.508;2022-07-04T05:26:30;7.95;;;4.82;;
5762;SDS011;2906;53.282;9.508;2022-07-04T05:27:31;6.20;;;4.70;;
5762;SDS011;2906;53.282;9.508;2022-07-04T05:28:33;8.60;;;4.72;;
5762;SDS011;2906;53.282;9.508;2022-07-04T05:29:36;8.68;;;5.38;;
5762;SDS011;2906;53.282;9.508;2022-07-04T05:30:39;10.25;;;4.97;;
5762;SDS011;2906;53.282;9.508;2022-07-04T05:31:40;11.45;;;5.18;;
5762;SDS011;2906;53.282;9.508;2022-07-04T05:32:43;13.85;;;4.70;;
5762;SDS011;2906;53.282;9.508;2022-07-04T05:33:44;10.98;;;4.65;;
5762;SDS011;2906;53.282;9.508;2022-07-04T05:34:46;5.97;;;4.43;;
5762;SDS011;2906;53.282;9.508;2022-07-04T05:35:47;12.48;;;4.35;;
5762;SDS011;2906;53.282;9.508;2022-07-04T05:36:50;10.48;;;5.10;;
5762;SDS011;2906;53.282;9.508;2022-07-04T05:37:51;10.75;;;4.57;;
5762;SDS011;2906;53.282;9.508;2022-07-04T05:38:53;14.10;;;4.60;;
5762;SDS011;2906;53.282;9.508;2022-07-04T05:39:55;12.60;;;4.53;;
5762;SDS011;2906;53.282;9.508;2022-07-04T05:40:57;10.13;;;4.43;;
5762;SDS011;2906;53.282;9.508;2022-07-04T05:41:58;6.55;;;4.15;;
5762;SDS011;2906;53.282;9.508;2022-07-04T05:43:01;11.73;;;4.45;;
5762;SDS011;2906;53.282;9.508;2022-07-04T05:44:02;7.60;;;3.78;;
5762;SDS011;2906;53.282;9.508;2022-07-04T05:45:06;9.82;;;4.60;;
5762;SDS011;2906;53.282;9.508;2022-07-04T05:46:07;7.85;;;3.92;;
5762;SDS011;2906;53.282;9.508;2022-07-04T05:47:09;4.75;;;3.10;;
5762;SDS011;2906;53.282;9.508;2022-07-04T05:48:11;4.43;;;3.33;;
5762;SDS011;2906;53.282;9.508;2022-07-04T05:49:13;6.50;;;3.47;;
5762;SDS011;2906;53.282;9.508;2022-07-04T05:50:14;7.88;;;3.67;;
5762;SDS011;2906;53.282;9.508;2022-07-04T05:51:16;239.60;;;153.45;;
5762;SDS011;2906;53.282;9.508;2022-07-04T05:52:18;188.18;;;106.97;;
5762;SDS011;2906;53.282;9.508;2022-07-04T05:53:20;216.73;;;104.90;;
5762;SDS011;2906;53.282;9.508;2022-07-04T05:54:21;16.60;;;8.45;;
5762;SDS011;2906;53.282;9.508;2022-07-04T05:55:23;6.20;;;2.83;;
5762;SDS011;2906;53.282;9.508;2022-07-04T05:56:25;5.65;;;3.25;;
5762;SDS011;2906;53.282;9.508;2022-07-04T05:57:27;13.23;;;3.70;;
5762;SDS011;2906;53.282;9.508;2022-07-04T05:58:29;5.63;;;3.13;;
5762;SDS011;2906;53.282;9.508;2022-07-04T05:59:31;9.55;;;4.03;;
5762;SDS011;2906;53.282;9.508;2022-07-04T06:00:33;9.05;;;3.13;;
5762;SDS011;2906;53.282;9.508;2022-07-04T06:01:36;8.02;;;3.40;;
5762;SDS011;2906;53.282;9.508;2022-07-04T06:02:37;6.25;;;3.17;;
5762;SDS011;2906;53.282;9.508;2022-07-04T06:03:41;6.65;;;3.45;;
5762;SDS011;2906;53.282;9.508;2022-07-04T06:04:42;5.05;;;2.80;;
5762;SDS011;2906;53.282;9.508;2022-07-04T06:05:45;9.63;;;3.00;;
5762;SDS011;2906;53.282;9.508;2022-07-04T06:06:46;5.60;;;3.17;;
5762;SDS011;2906;53.282;9.508;2022-07-04T06:07:48;10.05;;;4.00;;
5762;SDS011;2906;53.282;9.508;2022-07-04T06:08:51;6.45;;;2.47;;
5762;SDS011;2906;53.282;9.508;2022-07-04T06:09:52;6.60;;;3.00;;
5762;SDS011;2906;53.282;9.508;2022-07-04T06:10:54;4.35;;;2.80;;
5762;SDS011;2906;53.282;9.508;2022-07-04T06:11:56;9.85;;;2.65;;
5762;SDS011;2906;53.282;9.508;2022-07-04T06:12:58;11.45;;;3.03;;
5762;SDS011;2906;53.282;9.508;2022-07-04T06:13:59;11.48;;;3.28;;
5762;SDS011;2906;53.282;9.508;2022-07-04T06:15:01;10.50;;;3.10;;
5762;SDS011;2906;53.282;9.508;2022-07-04T06:16:07;4.93;;;2.47;;
5762;SDS011;2906;53.282;9.508;2022-07-04T06:17:13;6.32;;;2.70;;
5762;SDS011;2906;53.282;9.508;2022-07-04T06:18:15;8.20;;;2.65;;
5762;SDS011;2906;53.282;9.508;2022-07-04T06:19:17;4.38;;;2.20;;
5762;SDS011;2906;53.282;9.508;2022-07-04T06:20:23;12.63;;;2.37;;
5762;SDS011;2906;53.282;9.508;2022-07-04T06:21:25;8.07;;;2.50;;
5762;SDS011;2906;53.282;9.508;2022-07-04T06:22:26;7.97;;;2.40;;